Hemavan, Sweden

11:52 PM CEST on July 26, 2016 (GMT +0200)
Hemavan | | Change Station

Elev 1617 ft 65.81 °N, 15.11 °E | Updated 2 minutes ago

Overcast
Overcast
60.0 °F
Feels Like 60.0 °F
N
0.0
Wind Variable Wind from ENE
Gusts 0.0 mph

Today
High -- | Low -- °F
--% Chance of Precip.
Yesterday
High -- | Low -- °F
Precip. -- in
Pressure 29.80 in
Visibility 6.2 miles
Clouds Overcast 7000 ft
Dew Point 58 °F
Humidity 92%
Rainfall 0.00 in
Snow Depth Not available.
3:25 AM 10:43 PM
Waning Gibbous, 50% visible
METAR ESUT 262120Z AUTO 00000KT 9999 OVC070/// 15/14 Q1009
Pressure 29.80 in
Visibility 6.2 miles
Clouds Overcast 7000 ft
Dew Point 58 °F
Humidity 92%
Rainfall 0.00 in
Snow Depth Not available.
3:25 AM 10:43 PM
Waning Gibbous, 50% visible
METAR ESUT 262120Z AUTO 00000KT 9999 OVC070/// 15/14 Q1009

10-Day Weather Forecast

×

Almanac

Astronomy

Jul. 26, 2016 Rise Set
Actual Time
Civil Twilight
Nautical Twilight
Astronomical Twilight
Moon
Length of Visible Light
Length of Day
Tomorrow will be .
, % of the Moon is Illuminated

Today's Extremes

Country Highs Country Lows

Community

WunderPhotos

Upload Photos

1,927,702 photos uploaded!

WunderBlog® & News

Nearby

Air Quality

  Air Quality AQ Index Pollutant
Not available.

Snow Depth

Station Depth Elevation

Earthquake Activity

City Distance Mag. Time & Date
Minimum magnitude displayed is 2.5.

Coastal Water Temperatures

Place Temperature

Stations

Nearby Weather Stations

Station Location Temp. Windchill Dew Point Humidity Wind Precip. Elev Updated Type